createdAt,value
2022-10-30T00:01:04.518Z,101509.56
2022-10-30T00:03:31.469Z,101514.91
2022-10-30T00:05:58.389Z,101514.91
2022-10-30T00:08:28.915Z,101515.13
2022-10-30T00:10:56.169Z,101506.97
2022-10-30T00:13:23.084Z,101502.34
2022-10-30T00:15:52.751Z,101507.44
2022-10-30T00:18:21.061Z,101496.03
2022-10-30T00:20:48.573Z,101511.09
2022-10-30T00:23:15.808Z,101513.75
2022-10-30T00:25:42.588Z,101504.44
2022-10-30T00:28:09.855Z,101502.00
2022-10-30T00:30:37.070Z,101500.88
2022-10-30T00:33:04.981Z,101495.16
2022-10-30T00:35:32.049Z,101499.44
2022-10-30T00:38:01.065Z,101499.94
2022-10-30T00:40:28.683Z,101503.13
2022-10-30T00:42:55.880Z,101493.34
2022-10-30T00:45:22.779Z,101497.13
2022-10-30T00:47:56.779Z,101490.56
2022-10-30T00:50:31.663Z,101495.63
2022-10-30T00:53:13.103Z,101495.34
2022-10-30T00:55:47.727Z,101490.94
2022-10-30T00:58:20.492Z,101492.56
2022-10-30T01:00:53.941Z,101488.75
2022-10-30T01:03:23.123Z,101488.19
2022-10-30T01:05:57.607Z,101484.34
2022-10-30T01:08:24.934Z,101461.31
2022-10-30T01:10:52.853Z,101470.78
2022-10-30T01:13:23.000Z,101469.16
2022-10-30T01:16:39.649Z,101468.84
2022-10-30T01:19:42.823Z,101471.47
2022-10-30T01:22:52.812Z,101468.72
2022-10-30T01:26:13.580Z,101460.31
2022-10-30T01:29:07.220Z,101462.63
2022-10-30T01:31:52.525Z,101456.91
2022-10-30T01:34:34.520Z,101459.03
2022-10-30T01:37:22.430Z,101465.00
2022-10-30T01:39:50.465Z,101455.78
2022-10-30T01:42:57.690Z,101455.22
2022-10-30T01:45:38.866Z,101460.19
2022-10-30T01:49:13.121Z,101461.75
2022-10-30T01:51:51.592Z,101463.63
2022-10-30T01:57:42.779Z,101437.09
2022-10-30T02:00:16.030Z,101441.41
2022-10-30T02:02:50.046Z,101430.28
2022-10-30T02:05:48.402Z,101435.47
2022-10-30T02:08:18.719Z,101424.56
2022-10-30T02:10:48.047Z,101431.84
2022-10-30T02:13:16.169Z,101425.06
2022-10-30T02:15:44.237Z,101426.63
2022-10-30T02:18:11.700Z,101427.13
2022-10-30T02:20:39.983Z,101427.69
2022-10-30T02:23:08.855Z,101423.84
2022-10-30T02:25:36.235Z,101429.25
2022-10-30T02:28:03.392Z,101426.81
2022-10-30T02:30:31.478Z,101422.97
2022-10-30T02:33:01.657Z,101422.41
2022-10-30T02:35:30.436Z,101423.72
2022-10-30T02:37:57.430Z,101419.63
2022-10-30T02:40:26.282Z,101420.44
2022-10-30T02:42:54.778Z,101419.63
2022-10-30T02:45:22.227Z,101413.69
2022-10-30T02:47:49.178Z,101412.28
2022-10-30T02:50:17.218Z,101405.75
2022-10-30T02:52:44.211Z,101416.53
2022-10-30T02:55:11.044Z,101404.63
2022-10-30T02:57:38.696Z,101404.88
2022-10-30T03:00:07.176Z,101411.06
2022-10-30T03:02:34.460Z,101408.06
2022-10-30T03:05:01.405Z,101408.88
2022-10-30T03:07:29.880Z,101408.88
2022-10-30T03:09:56.904Z,101412.38
2022-10-30T03:12:23.711Z,101414.25
2022-10-30T03:14:52.314Z,101419.16
2022-10-30T03:17:19.130Z,101417.50
2022-10-30T03:19:47.391Z,101416.69
2022-10-30T03:22:14.626Z,101422.66
2022-10-30T03:24:41.487Z,101425.34
2022-10-30T03:27:08.495Z,101421.59
2022-10-30T03:29:35.681Z,101431.31
2022-10-30T03:32:04.302Z,101425.69
2022-10-30T03:34:36.303Z,101418.66
2022-10-30T03:37:07.021Z,101414.56
2022-10-30T03:39:34.278Z,101420.22
2022-10-30T03:42:03.180Z,101416.47
2022-10-30T03:44:30.079Z,101414.81
2022-10-30T03:46:58.334Z,101419.38
2022-10-30T03:49:31.947Z,101404.06
2022-10-30T03:52:00.773Z,101401.69
2022-10-30T03:54:27.597Z,101389.84
2022-10-30T03:56:54.902Z,101397.19
2022-10-30T03:59:25.606Z,101390.75
2022-10-30T04:04:50.234Z,101381.34
2022-10-30T04:07:17.239Z,101382.16
2022-10-30T04:09:44.321Z,101386.50
2022-10-30T04:12:11.212Z,101383.56
2022-10-30T04:14:38.090Z,101382.56
2022-10-30T04:17:06.322Z,101377.44
2022-10-30T04:19:33.224Z,101374.22
2022-10-30T04:22:00.376Z,101392.59
2022-10-30T04:24:27.406Z,101397.97
2022-10-30T04:26:56.090Z,101399.13
2022-10-30T04:29:22.961Z,101404.50
2022-10-30T04:31:50.216Z,101416.41
2022-10-30T04:34:17.391Z,101415.34
2022-10-30T04:36:44.304Z,101408.91
2022-10-30T04:39:11.747Z,101419.69
2022-10-30T04:41:38.957Z,101415.94
2022-10-30T04:44:13.448Z,101425.06
2022-10-30T04:46:40.504Z,101428.81
2022-10-30T04:49:09.709Z,101419.69
2022-10-30T04:51:37.069Z,101415.34
2022-10-30T04:54:05.846Z,101426.94
2022-10-30T04:56:35.425Z,101423.94
2022-10-30T04:59:04.012Z,101406.47
2022-10-30T05:01:31.661Z,101403.53
2022-10-30T05:03:59.115Z,101408.91
2022-10-30T05:06:32.625Z,101417.81
2022-10-30T05:08:59.705Z,101417.00
2022-10-30T05:11:39.427Z,101395.94
2022-10-30T05:14:07.175Z,101382.47
2022-10-30T05:16:34.572Z,101396.75
2022-10-30T05:19:03.845Z,101413.22
2022-10-30T05:21:31.924Z,101400.31
2022-10-30T05:23:58.936Z,101399.25
2022-10-30T05:26:27.868Z,101407.44
2022-10-30T05:28:54.883Z,101391.03
2022-10-30T05:31:22.001Z,101392.91
2022-10-30T05:34:26.863Z,101390.47
2022-10-30T05:36:54.395Z,101391.03
2022-10-30T05:39:22.196Z,101367.84
2022-10-30T05:41:50.998Z,101370.28
2022-10-30T05:44:29.209Z,101361.97
2022-10-30T05:47:08.010Z,101363.84
2022-10-30T05:49:35.785Z,101350.13
2022-10-30T05:52:05.760Z,101367.09
2022-10-30T05:54:32.937Z,101382.19
2022-10-30T05:57:22.635Z,101384.66
2022-10-30T05:59:49.888Z,101396.56
2022-10-30T06:02:17.473Z,101374.75
2022-10-30T06:04:44.399Z,101352.63
2022-10-30T06:07:13.799Z,101358.06
2022-10-30T06:09:40.661Z,101351.66
2022-10-30T06:12:23.232Z,101368.03
2022-10-30T06:15:22.724Z,101363.81
2022-10-30T06:17:50.515Z,101380.81
2022-10-30T06:20:26.576Z,101374.34
2022-10-30T06:23:05.890Z,101384.63
2022-10-30T06:25:43.758Z,101383.00
2022-10-30T06:28:21.098Z,101383.31
2022-10-30T06:30:48.127Z,101368.25
2022-10-30T06:33:15.202Z,101365.31
2022-10-30T06:35:51.478Z,101361.56
2022-10-30T06:38:19.932Z,101339.16
2022-10-30T06:40:49.632Z,101337.28
2022-10-30T06:43:28.102Z,101348.56
2022-10-30T06:46:03.761Z,101346.75
2022-10-30T06:48:32.272Z,101360.53
2022-10-30T06:51:02.805Z,101368.94
2022-10-30T06:53:33.132Z,101380.59
2022-10-30T06:56:19.987Z,101381.16
2022-10-30T06:59:10.931Z,101372.31
2022-10-30T07:01:55.815Z,101361.53
2022-10-30T07:07:18.901Z,101367.78
2022-10-30T07:09:48.514Z,101371.63
2022-10-30T07:12:18.761Z,101380.03
2022-10-30T07:15:01.971Z,101389.28
2022-10-30T07:17:34.787Z,101395.81
2022-10-30T07:20:09.201Z,101400.53
2022-10-30T07:22:39.457Z,101396.00
2022-10-30T07:25:08.222Z,101392.03
2022-10-30T07:27:54.632Z,101405.88
2022-10-30T07:30:32.814Z,101412.72
2022-10-30T07:33:19.897Z,101417.06
2022-10-30T07:36:03.803Z,101408.50
2022-10-30T07:39:06.019Z,101412.91
2022-10-30T07:41:40.143Z,101420.31
2022-10-30T07:44:33.271Z,101417.28
2022-10-30T07:47:25.535Z,101420.47
2022-10-30T07:50:01.345Z,101404.47
2022-10-30T07:55:34.700Z,101396.09
2022-10-30T07:58:13.553Z,101400.50
2022-10-30T08:00:59.587Z,101410.78
2022-10-30T08:03:31.799Z,101405.88
2022-10-30T08:08:43.317Z,101394.81
2022-10-30T08:11:29.391Z,101384.38
2022-10-30T08:13:58.495Z,101379.28
2022-10-30T08:16:25.476Z,101393.16
2022-10-30T08:18:52.684Z,101390.69
2022-10-30T08:21:23.358Z,101387.34
2022-10-30T08:23:57.298Z,101367.91
2022-10-30T08:26:27.731Z,101371.50
2022-10-30T08:28:54.636Z,101378.75
2022-10-30T08:31:23.354Z,101364.97
2022-10-30T08:34:15.822Z,101393.47
2022-10-30T08:37:05.087Z,101387.22
2022-10-30T08:39:32.002Z,101372.19
2022-10-30T08:42:16.377Z,101386.69
2022-10-30T08:44:44.616Z,101376.97
2022-10-30T08:47:39.764Z,101378.88
2022-10-30T08:50:07.931Z,101386.41
2022-10-30T08:52:35.151Z,101392.66
2022-10-30T08:55:02.010Z,101373.47
2022-10-30T08:57:36.115Z,101373.53
2022-10-30T09:00:05.624Z,101387.22
2022-10-30T09:03:05.247Z,101375.84
2022-10-30T09:05:50.964Z,101380.31
2022-10-30T09:08:18.002Z,101373.81
2022-10-30T09:11:00.799Z,101368.69
2022-10-30T09:13:28.461Z,101358.06
2022-10-30T09:16:01.509Z,101356.63
2022-10-30T09:18:30.560Z,101354.28
2022-10-30T09:20:58.164Z,101356.84
2022-10-30T09:23:25.676Z,101352.03
2022-10-30T09:26:01.875Z,101356.88
2022-10-30T09:28:41.473Z,101342.28
2022-10-30T09:31:46.833Z,101347.38
2022-10-30T09:34:17.787Z,101348.84
2022-10-30T09:36:48.052Z,101331.38
2022-10-30T09:39:15.742Z,101330.63
2022-10-30T09:42:14.551Z,101333.13
2022-10-30T09:45:28.530Z,101315.66
2022-10-30T09:48:42.242Z,101316.72
2022-10-30T09:51:29.355Z,101313.94
2022-10-30T09:54:21.266Z,101306.84
2022-10-30T09:57:27.336Z,101301.66
2022-10-30T10:00:10.440Z,101305.78
2022-10-30T10:03:17.177Z,101295.59
2022-10-30T10:06:06.080Z,101297.25
2022-10-30T10:09:09.392Z,101292.47
2022-10-30T10:12:00.549Z,101306.66
2022-10-30T10:14:37.314Z,101308.19
2022-10-30T10:17:12.067Z,101300.84
2022-10-30T10:19:47.935Z,101312.13
2022-10-30T10:22:21.981Z,101306.53
2022-10-30T10:24:49.500Z,101297.84
2022-10-30T10:27:59.135Z,101302.38
2022-10-30T10:30:42.360Z,101303.63
2022-10-30T10:33:30.251Z,101298.84
2022-10-30T10:36:14.756Z,101313.59
2022-10-30T10:38:52.972Z,101298.81
2022-10-30T10:41:53.907Z,101292.78
2022-10-30T10:44:42.318Z,101299.91
2022-10-30T10:47:57.638Z,101303.09
2022-10-30T10:50:34.609Z,101300.31
2022-10-30T10:53:24.211Z,101294.72
2022-10-30T10:55:54.987Z,101294.41
2022-10-30T10:58:39.008Z,101295.69
2022-10-30T11:01:13.708Z,101282.13
2022-10-30T11:04:11.373Z,101276.91
2022-10-30T11:06:49.651Z,101286.06
2022-10-30T11:09:20.036Z,101279.53
2022-10-30T11:11:49.234Z,101274.28
2022-10-30T11:14:29.075Z,101268.72
2022-10-30T11:17:32.765Z,101269.59
2022-10-30T11:20:13.658Z,101269.13
2022-10-30T11:22:47.355Z,101268.81
2022-10-30T11:25:26.928Z,101262.97
2022-10-30T11:28:04.430Z,101274.91
2022-10-30T11:30:31.836Z,101272.94
2022-10-30T11:32:59.662Z,101270.13
2022-10-30T11:35:26.971Z,101268.56
2022-10-30T11:38:19.223Z,101268.56
2022-10-30T11:40:52.839Z,101282.53
2022-10-30T11:43:23.621Z,101279.28
2022-10-30T11:45:51.467Z,101276.91
2022-10-30T11:48:33.650Z,101272.53
2022-10-30T11:51:06.128Z,101274.53
2022-10-30T11:53:42.040Z,101263.34
2022-10-30T11:56:21.685Z,101274.50
2022-10-30T11:58:57.717Z,101277.31
2022-10-30T12:01:35.835Z,101281.28
2022-10-30T12:04:32.913Z,101257.66
2022-10-30T12:07:29.440Z,101260.06
2022-10-30T12:09:59.728Z,101256.50
2022-10-30T12:12:42.556Z,101255.28
2022-10-30T12:15:20.772Z,101266.44
2022-10-30T12:17:58.715Z,101255.19
2022-10-30T12:20:26.884Z,101263.88
2022-10-30T12:22:54.563Z,101256.31
2022-10-30T12:25:32.463Z,101258.72
2022-10-30T12:28:07.165Z,101268.19
2022-10-30T12:30:49.883Z,101270.41
2022-10-30T12:33:25.556Z,101277.50
2022-10-30T12:36:23.467Z,101280.03
2022-10-30T12:39:03.039Z,101267.22
2022-10-30T12:41:40.943Z,101276.94
2022-10-30T12:44:07.712Z,101266.66
2022-10-30T12:46:47.443Z,101262.38
2022-10-30T12:49:29.528Z,101252.53
2022-10-30T12:52:05.835Z,101261.84
2022-10-30T12:54:40.407Z,101263.00
2022-10-30T12:57:18.733Z,101262.00
2022-10-30T13:00:07.525Z,101258.03
2022-10-30T13:03:09.109Z,101262.09
2022-10-30T13:06:07.013Z,101252.53
2022-10-30T13:08:55.240Z,101251.44
2022-10-30T13:11:45.928Z,101246.38
2022-10-30T13:14:20.643Z,101252.38
2022-10-30T13:16:47.700Z,101242.41
2022-10-30T13:19:14.958Z,101259.88
2022-10-30T13:21:47.892Z,101238.78
2022-10-30T13:24:31.791Z,101236.00
2022-10-30T13:27:18.304Z,101243.19
2022-10-30T13:30:17.285Z,101235.63
2022-10-30T13:33:03.102Z,101249.78
2022-10-30T13:35:52.147Z,101246.09
2022-10-30T13:38:38.118Z,101239.56
2022-10-30T13:41:36.001Z,101253.25
2022-10-30T13:44:44.849Z,101245.00
2022-10-30T13:47:27.864Z,101242.47
2022-10-30T13:50:09.875Z,101256.50
2022-10-30T13:52:39.987Z,101246.13
2022-10-30T13:55:29.746Z,101256.94
2022-10-30T13:58:17.317Z,101256.50
2022-10-30T14:01:15.394Z,101250.75
2022-10-30T14:04:02.366Z,101255.47
2022-10-30T14:06:39.627Z,101262.50
2022-10-30T14:09:43.478Z,101265.84
2022-10-30T14:12:52.119Z,101271.97
2022-10-30T14:15:44.459Z,101270.66
2022-10-30T14:18:14.392Z,101268.84
2022-10-30T14:20:44.450Z,101269.34
2022-10-30T14:23:20.947Z,101282.13
2022-10-30T14:26:03.338Z,101281.50
2022-10-30T14:28:32.410Z,101278.19
2022-10-30T14:31:13.940Z,101279.75
2022-10-30T14:33:41.072Z,101283.56
2022-10-30T14:36:17.566Z,101283.94
2022-10-30T14:38:55.608Z,101288.13
2022-10-30T14:41:36.223Z,101292.47
2022-10-30T14:44:50.380Z,101287.56
2022-10-30T14:47:34.681Z,101287.00
2022-10-30T14:50:21.760Z,101289.31
2022-10-30T14:53:11.417Z,101297.69
2022-10-30T14:56:07.534Z,101287.03
2022-10-30T14:58:37.745Z,101293.94
2022-10-30T15:01:04.900Z,101297.19
2022-10-30T15:04:12.873Z,101293.28
2022-10-30T15:07:04.239Z,101292.22
2022-10-30T15:10:17.284Z,101295.38
2022-10-30T15:12:55.813Z,101292.66
2022-10-30T15:15:25.653Z,101304.81
2022-10-30T15:17:59.888Z,101298.03
2022-10-30T15:20:31.834Z,101302.41
2022-10-30T15:23:05.163Z,101305.97
2022-10-30T15:25:38.340Z,101289.78
2022-10-30T15:28:05.978Z,101300.53
2022-10-30T15:30:32.899Z,101298.09
2022-10-30T15:33:00.106Z,101296.44
2022-10-30T15:35:29.168Z,101302.47
2022-10-30T15:38:06.800Z,101315.88
2022-10-30T15:40:38.416Z,101307.72
2022-10-30T15:43:10.823Z,101312.06
2022-10-30T15:45:42.927Z,101305.25
2022-10-30T15:48:25.595Z,101314.94
2022-10-30T15:51:14.325Z,101309.44
2022-10-30T15:53:57.209Z,101311.81
2022-10-30T15:57:06.807Z,101328.63
2022-10-30T15:59:32.848Z,101319.50
2022-10-30T16:01:59.914Z,101323.94
2022-10-30T16:04:37.404Z,101323.91
2022-10-30T16:07:19.983Z,101316.41
2022-10-30T16:10:17.966Z,101313.47
2022-10-30T16:12:45.283Z,101323.81
2022-10-30T16:15:26.616Z,101324.06
2022-10-30T16:18:26.769Z,101323.28
2022-10-30T16:21:22.754Z,101315.47
2022-10-30T16:23:53.987Z,101320.50
2022-10-30T16:26:39.363Z,101315.25
2022-10-30T16:29:18.253Z,101319.56
2022-10-30T16:31:51.710Z,101318.94
2022-10-30T16:34:35.079Z,101322.41
2022-10-30T16:37:05.222Z,101334.75
2022-10-30T16:39:34.078Z,101322.69
2022-10-30T16:42:01.601Z,101326.31
2022-10-30T16:44:34.500Z,101332.94
2022-10-30T16:47:17.013Z,101335.47
2022-10-30T16:49:55.356Z,101327.44
2022-10-30T16:52:29.096Z,101337.88
2022-10-30T16:55:24.901Z,101336.03
2022-10-30T16:57:57.964Z,101338.56
2022-10-30T17:00:35.420Z,101338.63
2022-10-30T17:03:10.923Z,101339.78
2022-10-30T17:05:40.711Z,101335.75
2022-10-30T17:08:33.467Z,101344.22
2022-10-30T17:11:04.882Z,101351.06
2022-10-30T17:13:33.060Z,101351.88
2022-10-30T17:16:30.914Z,101350.81
2022-10-30T17:19:01.142Z,101353.81
2022-10-30T17:21:42.169Z,101359.56
2022-10-30T17:24:23.790Z,101357.91
2022-10-30T17:27:00.622Z,101368.22
2022-10-30T17:29:36.946Z,101365.53
2022-10-30T17:32:22.105Z,101367.16
2022-10-30T17:35:13.616Z,101375.03
2022-10-30T17:37:40.577Z,101377.41
2022-10-30T17:40:08.046Z,101379.03
2022-10-30T17:42:35.389Z,101381.19
2022-10-30T17:45:02.424Z,101383.34
2022-10-30T17:47:29.312Z,101375.50
2022-10-30T17:49:56.289Z,101376.56
2022-10-30T17:52:23.173Z,101380.59
2022-10-30T17:54:50.030Z,101371.38
2022-10-30T17:57:17.286Z,101385.16
2022-10-30T17:59:44.310Z,101377.81
2022-10-30T18:02:17.861Z,101384.28
2022-10-30T18:04:45.829Z,101387.47
2022-10-30T18:07:15.338Z,101380.41
2022-10-30T18:09:43.570Z,101379.59
2022-10-30T18:12:19.225Z,101373.59
2022-10-30T18:14:46.670Z,101383.03
2022-10-30T18:17:13.504Z,101385.44
2022-10-30T18:19:40.645Z,101383.78
2022-10-30T18:22:09.497Z,101384.78
2022-10-30T18:24:36.429Z,101384.50
2022-10-30T18:27:05.291Z,101385.53
2022-10-30T18:29:32.299Z,101399.81
2022-10-30T18:32:06.918Z,101391.13
2022-10-30T18:34:41.692Z,101394.34
2022-10-30T18:37:09.405Z,101393.75
2022-10-30T18:42:09.533Z,101400.94
2022-10-30T18:44:36.507Z,101396.06
2022-10-30T18:50:01.794Z,101397.81
2022-10-30T18:52:31.047Z,101395.88
2022-10-30T18:54:57.909Z,101395.84
2022-10-30T18:57:55.137Z,101400.38
2022-10-30T19:00:25.041Z,101396.84
2022-10-30T19:02:52.894Z,101393.84
2022-10-30T19:05:45.639Z,101397.25
2022-10-30T19:08:13.425Z,101389.38
2022-10-30T19:10:44.601Z,101395.53
2022-10-30T19:16:33.369Z,101380.25
2022-10-30T19:19:00.466Z,101389.44
2022-10-30T19:21:27.980Z,101387.22
2022-10-30T19:23:56.236Z,101374.47
2022-10-30T19:26:23.178Z,101377.69
2022-10-30T19:28:50.439Z,101379.25
2022-10-30T19:31:19.766Z,101389.75
2022-10-30T19:33:51.387Z,101377.03
2022-10-30T19:36:39.657Z,101392.31
2022-10-30T19:39:18.459Z,101384.75
2022-10-30T19:41:45.794Z,101387.63
2022-10-30T19:44:12.637Z,101394.59
2022-10-30T19:46:39.644Z,101398.84
2022-10-30T19:49:18.187Z,101395.59
2022-10-30T19:51:45.296Z,101391.22
2022-10-30T19:54:12.239Z,101384.13
2022-10-30T19:56:39.579Z,101385.44
2022-10-30T19:59:10.976Z,101383.81
2022-10-30T20:01:38.091Z,101380.56
2022-10-30T20:04:05.209Z,101384.00
2022-10-30T20:06:32.094Z,101380.38
2022-10-30T20:09:02.346Z,101385.72
2022-10-30T20:11:30.256Z,101388.66
2022-10-30T20:13:57.143Z,101382.13
2022-10-30T20:16:24.079Z,101385.78
2022-10-30T20:18:50.982Z,101381.72
2022-10-30T20:21:19.598Z,101391.09
2022-10-30T20:23:46.777Z,101403.75
2022-10-30T20:26:28.519Z,101405.06
2022-10-30T20:28:56.444Z,101395.84
2022-10-30T20:31:23.706Z,101403.13
2022-10-30T20:33:50.639Z,101398.47
2022-10-30T20:36:17.468Z,101401.66
2022-10-30T20:38:44.549Z,101407.88
2022-10-30T20:41:22.843Z,101406.50
2022-10-30T20:43:50.535Z,101417.19
2022-10-30T20:46:18.185Z,101410.66
2022-10-30T20:48:45.557Z,101415.22
2022-10-30T20:51:12.973Z,101413.59
2022-10-30T20:53:39.915Z,101420.28
2022-10-30T20:56:07.136Z,101423.72
2022-10-30T20:58:34.040Z,101421.03
2022-10-30T21:01:00.948Z,101430.66
2022-10-30T21:03:28.579Z,101420.38
2022-10-30T21:05:58.965Z,101434.91
2022-10-30T21:08:34.090Z,101422.16
2022-10-30T21:11:03.395Z,101424.84
2022-10-30T21:13:33.739Z,101422.66
2022-10-30T21:16:04.243Z,101416.69
2022-10-30T21:18:31.439Z,101413.09
2022-10-30T21:21:08.384Z,101410.66
2022-10-30T21:23:35.495Z,101407.88
2022-10-30T21:26:06.302Z,101410.34
2022-10-30T21:28:34.054Z,101413.50
2022-10-30T21:31:02.852Z,101407.78
2022-10-30T21:33:31.841Z,101412.03
2022-10-30T21:36:13.615Z,101416.34
2022-10-30T21:38:43.205Z,101400.09
2022-10-30T21:41:14.456Z,101401.59
2022-10-30T21:43:41.995Z,101410.72
2022-10-30T21:46:12.192Z,101418.22
2022-10-30T21:48:40.119Z,101413.91
2022-10-30T21:51:21.017Z,101412.75
2022-10-30T21:53:48.719Z,101417.00
2022-10-30T21:56:22.022Z,101406.72
2022-10-30T21:58:50.353Z,101411.53
2022-10-30T22:01:22.786Z,101405.22
2022-10-30T22:03:50.350Z,101414.13
2022-10-30T22:06:19.800Z,101417.28
2022-10-30T22:08:49.476Z,101412.88
2022-10-30T22:11:17.326Z,101420.22
2022-10-30T22:13:44.395Z,101424.78
2022-10-30T22:16:14.325Z,101418.81
2022-10-30T22:18:41.727Z,101423.63
2022-10-30T22:21:11.770Z,101423.06
2022-10-30T22:23:40.384Z,101420.84
2022-10-30T22:26:12.512Z,101421.09
2022-10-30T22:28:39.508Z,101430.69
2022-10-30T22:31:12.474Z,101429.88
2022-10-30T22:33:40.418Z,101432.22
2022-10-30T22:36:11.576Z,101422.19
2022-10-30T22:38:38.497Z,101426.50
2022-10-30T22:41:11.568Z,101432.13
2022-10-30T22:43:39.755Z,101429.69
2022-10-30T22:46:06.995Z,101433.91
2022-10-30T22:48:34.132Z,101427.69
2022-10-30T22:51:04.312Z,101427.34
2022-10-30T22:53:33.132Z,101434.84
2022-10-30T22:56:10.457Z,101434.03
2022-10-30T22:58:37.376Z,101436.13
2022-10-30T23:01:26.358Z,101428.31
2022-10-30T23:03:56.598Z,101427.97
2022-10-30T23:06:24.097Z,101428.44
2022-10-30T23:08:58.159Z,101432.19
2022-10-30T23:11:25.855Z,101418.88
2022-10-30T23:13:52.716Z,101421.56
2022-10-30T23:16:22.864Z,101426.72
2022-10-30T23:18:50.792Z,101424.94
2022-10-30T23:21:21.423Z,101437.31
2022-10-30T23:23:49.498Z,101432.41
2022-10-30T23:26:22.814Z,101439.66
2022-10-30T23:28:52.549Z,101442.00
2022-10-30T23:31:38.418Z,101450.78
2022-10-30T23:34:14.038Z,101436.75
2022-10-30T23:36:42.830Z,101434.19
2022-10-30T23:39:17.948Z,101446.94
2022-10-30T23:41:45.077Z,101455.22
2022-10-30T23:44:14.464Z,101453.81
2022-10-30T23:46:42.171Z,101447.06
2022-10-30T23:49:09.010Z,101441.91
2022-10-30T23:51:36.058Z,101444.00
2022-10-30T23:54:03.257Z,101442.38
2022-10-30T23:56:30.324Z,101441.56
2022-10-30T23:58:57.698Z,101452.31
